Time;durP1;ratioP1;P1;durP2;ratioP2;P2;SDS_P1;SDS_P2;PMS_P1;PMS_P2;Temp;Humidity;BMP_temperature;BMP_pressure;BME280_temperature;BME280_humidity;BME280_pressure;Samples;Min_cycle;Max_cycle;Signal;HPM_P1;HPM_P2
2021/11/16 14:44:19;;;;;;;48.65;16.17;;;;;;;1.88;100.00;102915.70;1717560;82;21146;-84
2021/11/16 14:46:55;;;;;;;36.95;15.65;;;;;;;1.83;100.00;102905.87;1733116;80;21014;-85
2021/11/16 14:49:40;;;;;;;39.30;15.08;;;;;;;1.80;100.00;102906.30;1732656;80;21026;-85
2021/11/16 14:51:59;;;;;;;38.63;16.17;;;;;;;1.76;100.00;102896.47;1717536;82;21081;-85
2021/11/16 14:54:28;;;;;;;49.15;16.93;;;;;;;1.76;100.00;102902.89;1746123;80;21049;-85
2021/11/16 14:56:57;;;;;;;43.73;18.10;;;;;;;1.75;100.00;102902.45;1778078;80;21651;-85
2021/11/16 14:59:25;;;;;;;43.28;18.70;;;;;;;1.75;100.00;102897.77;1740789;80;21119;-85
2021/11/16 15:01:59;;;;;;;52.43;25.43;;;;;;;1.73;100.00;102893.89;1717308;82;21080;-86
2021/11/16 15:04:37;;;;;;;61.30;29.15;;;;;;;1.72;100.00;102894.77;1701421;80;21023;-85
2021/11/16 15:07:15;;;;;;;64.62;31.12;;;;;;;1.69;100.00;102887.91;1776852;80;21065;-85
2021/11/16 15:10:02;;;;;;;62.62;32.33;;;;;;;1.67;100.00;102886.20;1726429;80;21160;-85
2021/11/16 15:12:30;;;;;;;71.70;35.40;;;;;;;1.65;100.00;102882.77;1706608;82;21068;-85
2021/11/16 15:15:04;;;;;;;81.82;36.77;;;;;;;1.64;100.00;102877.23;1718268;82;21569;-85
2021/11/16 15:17:51;;;;;;;64.47;34.45;;;;;;;1.57;100.00;102869.51;1762985;80;21030;-85
2021/11/16 15:20:38;;;;;;;70.95;36.68;;;;;;;1.53;100.00;102879.78;1777811;80;21716;-85
2021/11/16 15:23:10;;;;;;;86.80;41.92;;;;;;;1.50;100.00;102872.94;1740764;81;21049;-85
2021/11/16 15:25:45;;;;;;;82.53;44.93;;;;;;;1.48;100.00;102880.23;1733861;80;21113;-86
2021/11/16 15:28:16;;;;;;;80.22;42.10;;;;;;;1.45;100.00;102881.50;1709421;82;21037;-86
2021/11/16 15:30:57;;;;;;;92.78;46.02;;;;;;;1.41;100.00;102876.80;1747232;81;21152;-85
2021/11/16 15:33:42;;;;;;;117.42;56.77;;;;;;;1.37;100.00;102880.23;1747339;81;21880;-84
2021/11/16 15:36:18;;;;;;;127.58;63.45;;;;;;;1.32;100.00;102875.54;1747014;82;21199;-86
2021/11/16 15:38:59;;;;;;;145.70;73.17;;;;;;;1.25;100.00;102869.09;1741986;80;21058;-86
2021/11/16 15:41:36;;;;;;;;;;;;;;;1.20;100.00;102869.53;1678348;82;21070;-86
2021/11/16 15:47:10;;;;;;;154.00;74.97;;;;;;;1.08;100.00;102872.11;1728569;81;21713;-85
2021/11/16 15:57:43;;;;;;;383.77;176.00;;;;;;;0.71;100.00;102869.05;1732288;82;21053;-85
2021/11/16 16:00:21;;;;;;;327.38;150.00;;;;;;;0.66;100.00;102869.89;1737239;81;21042;-87
2021/11/16 16:02:52;;;;;;;276.37;131.35;;;;;;;0.62;100.00;102867.30;1740471;82;21826;-85
2021/11/16 16:05:22;;;;;;;331.60;135.28;;;;;;;0.64;100.00;102862.20;1716827;82;21018;-89
2021/11/16 16:08:05;;;;;;;310.68;145.50;;;;;;;0.72;100.00;102862.20;1740516;82;21073;-82
2021/11/16 16:10:43;;;;;;;324.45;148.50;;;;;;;0.71;100.00;102858.80;1740359;82;20987;-82
2021/11/16 16:13:14;;;;;;;231.13;103.95;;;;;;;0.55;100.00;102859.61;1740636;82;21046;-83
2021/11/16 16:15:45;;;;;;;164.57;75.42;;;;;;;0.34;100.00;102855.26;1738301;81;21120;-83
2021/11/16 16:18:28;;;;;;;156.97;65.42;;;;;;;0.13;100.00;102850.45;1740479;82;21540;-83
2021/11/16 16:21:00;;;;;;;129.72;57.95;;;;;;;-0.09;100.00;102847.80;1740724;82;21026;-85
2021/11/16 16:23:29;;;;;;;109.60;59.33;;;;;;;-0.03;100.00;102840.58;1725485;80;21816;-86
2021/11/16 16:25:58;;;;;;;121.10;63.08;;;;;;;-0.02;100.00;102846.98;1711801;82;21088;-86
2021/11/16 16:28:26;;;;;;;135.57;68.22;;;;;;;-0.22;100.00;102847.31;1731598;81;21138;-86
2021/11/16 16:30:54;;;;;;;140.97;69.47;;;;;;;-0.44;100.00;102844.59;1746970;81;21057;-85
2021/11/16 16:33:21;;;;;;;170.97;83.17;;;;;;;-0.66;100.00;102840.61;1743500;80;21543;-85
2021/11/16 16:35:48;;;;;;;170.12;82.00;;;;;;;-0.87;100.00;102847.69;1696289;82;21592;-85
2021/11/16 16:38:15;;;;;;;184.82;97.85;;;;;;;-1.07;100.00;102851.34;1717060;82;21582;-85
2021/11/16 16:40:42;;;;;;;232.98;114.67;;;;;;;-1.27;100.00;102852.02;1738860;81;21133;-86
2021/11/16 16:43:09;;;;;;;224.77;114.50;;;;;;;-1.47;100.00;102842.86;1736132;82;21085;-85
2021/11/16 16:45:36;;;;;;;202.03;98.85;;;;;;;-1.62;100.00;102849.08;1737194;80;21060;-86
2021/11/16 16:48:04;;;;;;;191.85;97.95;;;;;;;-1.74;100.00;102849.79;1672952;85;21060;-86
2021/11/16 16:50:31;;;;;;;185.03;100.18;;;;;;;-1.86;100.00;102840.67;1694580;82;21124;-85
2021/11/16 16:52:58;;;;;;;187.35;95.47;;;;;;;-1.96;100.00;102839.70;1666193;84;21969;-86
2021/11/16 16:55:25;;;;;;;167.35;84.83;;;;;;;-2.06;100.00;102840.86;1686247;84;21338;-86
2021/11/16 16:57:53;;;;;;;154.42;80.28;;;;;;;-2.12;100.00;102836.08;1683660;84;21086;-86
2021/11/16 17:00:24;;;;;;;190.47;97.15;;;;;;;-2.17;100.00;102830.94;1678909;84;21544;-85
2021/11/16 17:02:53;;;;;;;204.97;99.13;;;;;;;-2.19;100.00;102829.17;1670463;85;21077;-86
2021/11/16 17:05:21;;;;;;;176.53;86.12;;;;;;;-2.24;100.00;102829.98;1678236;83;21840;-85
2021/11/16 17:07:48;;;;;;;180.75;84.67;;;;;;;-2.27;100.00;102833.76;1648981;84;21591;-88
2021/11/16 17:10:16;;;;;;;198.93;85.15;;;;;;;-2.28;100.00;102828.21;1672721;84;21290;-82
2021/11/16 17:12:43;;;;;;;187.65;90.35;;;;;;;-2.28;100.00;102833.31;1661200;86;21061;-85
2021/11/16 17:15:11;;;;;;;200.50;96.15;;;;;;;-2.07;100.00;102827.65;1684772;84;21067;-85
2021/11/16 17:17:41;;;;;;;206.45;87.55;;;;;;;-1.81;100.00;102823.73;1742907;82;21206;-86
2021/11/16 17:20:09;;;;;;;231.50;106.40;;;;;;;-1.67;100.00;102826.42;1643305;83;21026;-84
2021/11/16 17:22:39;;;;;;;228.75;108.70;;;;;;;-1.49;100.00;102825.80;1649213;84;21022;-84
2021/11/16 17:25:08;;;;;;;256.82;120.00;;;;;;;-1.50;100.00;102821.52;1692060;83;21094;-84
2021/11/16 17:27:36;;;;;;;271.93;130.82;;;;;;;-1.60;100.00;102822.70;1723941;82;21317;-83
2021/11/16 17:30:12;;;;;;;264.08;120.02;;;;;;;-1.70;100.00;102814.48;1714445;82;21172;-85
2021/11/16 17:32:43;;;;;;;215.25;96.20;;;;;;;-1.80;100.00;102810.09;1680590;82;21119;-84
2021/11/16 17:35:12;;;;;;;194.22;86.87;;;;;;;-1.92;100.00;102816.78;1685869;85;21150;-84
2021/11/16 17:37:39;;;;;;;189.67;85.10;;;;;;;-2.03;100.00;102808.55;1717648;80;21092;-83
2021/11/16 17:40:07;;;;;;;160.88;78.87;;;;;;;-2.15;100.00;102798.61;1739148;82;21541;-84
2021/11/16 17:42:34;;;;;;;170.20;81.22;;;;;;;-2.25;100.00;102801.47;1747596;80;21132;-83
2021/11/16 17:45:02;;;;;;;176.10;82.30;;;;;;;-2.33;100.00;102796.67;1747174;80;21108;-83
2021/11/16 17:47:29;;;;;;;167.45;83.80;;;;;;;-2.41;100.00;102800.41;1715815;82;21018;-82
2021/11/16 17:49:56;;;;;;;188.90;87.85;;;;;;;-2.48;100.00;102788.80;1716643;82;21017;-83
2021/11/16 17:52:28;;;;;;;173.20;85.70;;;;;;;-2.55;100.00;102789.13;1716327;82;21101;-83
2021/11/16 17:54:52;;;;;;;315.43;117.90;;;;;;;-2.62;100.00;102789.47;1731083;81;21124;-83
2021/11/16 17:57:19;;;;;;;248.18;94.32;;;;;;;-2.68;100.00;102789.36;1715345;82;21578;-83
2021/11/16 17:59:46;;;;;;;195.15;83.03;;;;;;;-2.76;100.00;102783.28;1678317;82;21072;-82
2021/11/16 18:02:19;;;;;;;216.10;92.05;;;;;;;-2.82;100.00;102781.91;1666083;84;21205;-82
2021/11/16 18:04:47;;;;;;;221.15;90.92;;;;;;;-2.90;100.00;102780.11;1613933;87;21086;-82
2021/11/16 18:10:09;;;;;;;244.37;95.62;;;;;;;-2.99;100.00;102774.02;1707684;82;21122;-83
2021/11/16 18:12:36;;;;;;;200.43;86.60;;;;;;;-3.07;100.00;102789.17;1666155;84;21120;-82
2021/11/16 18:15:09;;;;;;;171.43;79.07;;;;;;;-3.14;100.00;102785.67;1647424;85;21112;-81
2021/11/16 18:17:38;;;;;;;183.40;83.10;;;;;;;-3.20;100.00;102780.45;1736501;81;20983;-83
2021/11/16 18:20:07;;;;;;;181.28;83.15;;;;;;;-3.26;100.00;102785.05;1706382;81;21069;-82
2021/11/16 18:22:35;;;;;;;169.72;79.60;;;;;;;-3.29;100.00;102784.98;1687384;82;21067;-83
2021/11/16 18:25:05;;;;;;;154.03;77.90;;;;;;;-3.31;100.00;102781.55;1732834;82;21106;-84
2021/11/16 18:27:43;;;;;;;164.30;76.22;;;;;;;-3.34;100.00;102778.96;1704254;82;21116;-83
2021/11/16 18:30:17;;;;;;;150.32;72.05;;;;;;;-3.36;100.00;102777.64;1729158;80;21101;-82
2021/11/16 18:32:46;;;;;;;152.17;74.25;;;;;;;-3.37;100.00;102775.07;1708969;81;21137;-82
2021/11/16 18:35:16;;;;;;;163.10;75.05;;;;;;;-3.37;100.00;102758.52;1762698;80;21104;-83
2021/11/16 18:37:48;;;;;;;153.93;71.97;;;;;;;-3.37;100.00;102758.52;1747042;81;21053;-84
2021/11/16 18:40:17;;;;;;;155.25;71.40;;;;;;;-3.37;100.00;102763.20;1737932;82;21048;-81
2021/11/16 18:42:55;;;;;;;152.40;69.95;;;;;;;-3.34;100.00;102772.16;1747097;80;21064;-83
2021/11/16 18:45:14;;;;;;;150.97;66.10;;;;;;;-3.36;100.00;102761.51;1718048;82;21984;-83
2021/11/16 18:47:45;;;;;;;135.88;58.35;;;;;;;-3.38;100.00;102761.89;1719725;80;21080;-82
2021/11/16 18:50:15;;;;;;;117.40;50.92;;;;;;;-3.40;100.00;102763.14;1726112;80;21080;-82
2021/11/16 18:52:44;;;;;;;112.20;47.35;;;;;;;-3.41;100.00;102758.03;1717829;82;21105;-81
2021/11/16 18:55:15;;;;;;;132.15;57.27;;;;;;;-3.43;100.00;102753.31;1717364;82;21137;-81
2021/11/16 18:57:42;;;;;;;129.95;57.53;;;;;;;-3.45;100.00;102754.97;1685067;82;21171;-83
2021/11/16 19:00:11;;;;;;;138.65;66.10;;;;;;;-3.51;100.00;102754.44;1717455;80;21613;-81
2021/11/16 19:02:38;;;;;;;140.95;66.42;;;;;;;-3.56;100.00;102756.90;1718636;81;21720;-82
2021/11/16 19:05:06;;;;;;;141.82;64.22;;;;;;;-3.60;100.00;102757.69;1720219;82;21060;-81
2021/11/16 19:07:34;;;;;;;146.80;63.40;;;;;;;-3.66;100.00;102763.95;1717931;83;21029;-83
2021/11/16 19:10:01;;;;;;;144.50;60.17;;;;;;;-3.72;100.00;102757.05;1717829;82;21104;-83
2021/11/16 19:12:29;;;;;;;121.33;48.08;;;;;;;-3.76;100.00;102755.26;1695527;81;21106;-82
2021/11/16 19:14:59;;;;;;;77.60;33.53;;;;;;;-3.77;100.00;102757.78;1717908;82;21021;-82
2021/11/16 19:17:25;;;;;;;71.90;30.90;;;;;;;-3.80;100.00;102758.59;1719020;80;21070;-82
2021/11/16 19:19:55;;;;;;;90.65;39.05;;;;;;;-3.84;100.00;102752.98;1778650;80;22540;-82
2021/11/16 19:22:28;;;;;;;97.75;42.33;;;;;;;-3.87;100.00;102752.51;1764476;80;21130;-81
2021/11/16 19:25:02;;;;;;;100.02;47.48;;;;;;;-3.91;100.00;102746.05;1773742;80;21023;-82
2021/11/16 19:28:22;;;;;;;115.67;51.68;;;;;;;-3.94;100.00;102752.37;1734675;82;22066;-81
2021/11/16 19:30:05;;;;;;;108.32;46.02;;;;;;;-4.00;100.00;102750.56;1690124;82;21576;-82
2021/11/16 19:32:37;;;;;;;109.20;50.80;;;;;;;-4.09;100.00;102758.01;1705690;82;21021;-82
2021/11/16 19:35:17;;;;;;;128.90;53.40;;;;;;;-4.19;100.00;102761.63;1648411;85;21110;-83
2021/11/16 19:37:44;;;;;;;116.50;50.70;;;;;;;-4.27;100.00;102758.06;1709544;82;21350;-84
2021/11/16 19:40:15;;;;;;;118.13;50.52;;;;;;;-4.32;100.00;102752.03;1678234;83;21779;-83
2021/11/16 19:42:43;;;;;;;118.93;46.83;;;;;;;-4.35;100.00;102748.14;1685597;82;21080;-84
2021/11/16 19:45:11;;;;;;;94.40;38.83;;;;;;;-4.37;100.00;102747.27;1686588;83;21045;-83
2021/11/16 19:47:41;;;;;;;87.97;36.10;;;;;;;-4.38;100.00;102743.84;1728290;80;21150;-82
2021/11/16 19:50:12;;;;;;;80.12;37.80;;;;;;;-4.37;100.00;102746.00;1747316;81;21085;-82
2021/11/16 19:52:41;;;;;;;93.25;42.43;;;;;;;-4.39;100.00;102738.74;1734969;82;21483;-83
2021/11/16 19:55:11;;;;;;;91.75;41.92;;;;;;;-4.38;100.00;102739.19;1735172;81;22043;-83
2021/11/16 19:57:39;;;;;;;93.87;41.77;;;;;;;-4.38;100.00;102737.49;1726088;82;21951;-83
2021/11/16 20:00:11;;;;;;;95.55;41.05;;;;;;;-4.38;100.00;102732.83;1708544;82;21094;-82
2021/11/16 20:02:42;;;;;;;82.55;37.63;;;;;;;-4.39;100.00;102729.41;1730006;81;21045;-82
2021/11/16 20:05:11;;;;;;;87.85;36.53;;;;;;;-4.39;100.00;102734.92;1728771;82;21054;-83
2021/11/16 20:07:42;;;;;;;77.12;36.55;;;;;;;-4.42;100.00;102731.91;1732710;80;21141;-84
2021/11/16 20:10:13;;;;;;;81.95;36.80;;;;;;;-4.44;100.00;102733.12;1716647;82;21049;-84
2021/11/16 20:12:43;;;;;;;108.78;48.15;;;;;;;-4.45;100.00;102726.31;1710181;82;21077;-84
2021/11/16 20:15:17;;;;;;;78.92;42.20;;;;;;;-4.47;100.00;102723.30;1736514;80;38468;-83
2021/11/16 20:17:53;;;;;;;107.43;54.05;;;;;;;-4.46;100.00;102721.20;1740424;80;21047;-82
2021/11/16 20:20:23;;;;;;;103.78;46.20;;;;;;;-4.40;100.00;102721.76;1706045;82;21149;-81
2021/11/16 20:22:52;;;;;;;93.10;41.30;;;;;;;-4.40;100.00;102715.39;1705303;81;21088;-84
2021/11/16 20:25:22;;;;;;;80.00;37.85;;;;;;;-4.39;100.00;102714.58;1697523;82;21146;-83
2021/11/16 20:27:53;;;;;;;77.95;35.50;;;;;;;-4.39;100.00;102708.22;1741365;80;21109;-82
2021/11/16 20:30:23;;;;;;;;;;;;;;;-4.37;100.00;102714.20;1709078;82;21041;-83
2021/11/16 20:32:56;;;;;;;67.42;34.35;;;;;;;-4.33;100.00;102714.69;1736954;80;20204;-82
2021/11/16 20:35:25;;;;;;;78.20;37.33;;;;;;;-4.32;100.00;102711.33;1713761;81;21115;-83
2021/11/16 20:38:06;;;;;;;72.90;35.75;;;;;;;-4.40;100.00;102711.16;1730840;80;21813;-85
2021/11/16 20:40:30;;;;;;;63.05;31.17;;;;;;;-4.50;100.00;102714.35;1730185;80;21046;-84
2021/11/16 20:43:04;;;;;;;63.28;31.95;;;;;;;-4.57;100.00;102717.16;1735321;81;21074;-83
2021/11/16 20:45:59;;;;;;;60.17;29.15;;;;;;;-4.56;100.00;102716.34;1714709;82;21033;-83
2021/11/16 20:59:28;;;;;;;71.80;33.90;;;;;;;-4.74;100.00;102710.45;1758076;80;21085;-83
2021/11/16 21:02:01;;;;;;;62.38;28.57;;;;;;;-4.76;100.00;102712.09;1655924;83;21060;-84
2021/11/16 21:04:30;;;;;;;54.90;28.17;;;;;;;-4.80;100.00;102706.48;1709291;82;21348;-84
2021/11/16 21:06:58;;;;;;;62.45;31.23;;;;;;;-4.84;100.00;102705.98;1677796;84;21552;-83
2021/11/16 21:09:26;;;;;;;72.62;33.05;;;;;;;-4.86;100.00;102707.22;1727114;81;21067;-84
2021/11/16 21:11:58;;;;;;;61.63;29.75;;;;;;;-4.84;100.00;102701.73;1677510;84;21040;-83
2021/11/16 21:14:34;;;;;;;58.10;27.20;;;;;;;-4.86;100.00;102705.95;1719204;80;21064;-84
2021/11/16 21:17:04;;;;;;;62.15;26.73;;;;;;;-4.90;100.00;102701.61;1712977;82;21158;-83
2021/11/16 21:19:35;;;;;;;54.80;26.62;;;;;;;-4.94;100.00;102701.10;1685720;83;21058;-84
2021/11/16 21:22:05;;;;;;;57.03;29.87;;;;;;;-4.95;100.00;102699.38;1717970;82;21582;-84
2021/11/16 21:24:33;;;;;;;57.27;28.20;;;;;;;-4.98;100.00;102691.67;1717693;83;21060;-84
2021/11/16 21:27:01;;;;;;;58.80;29.02;;;;;;;-5.02;100.00;102692.02;1720721;80;21041;-84
2021/11/16 21:29:30;;;;;;;59.25;29.63;;;;;;;-5.08;100.00;102686.38;1747171;80;22416;-83
2021/11/16 21:31:57;;;;;;;52.40;25.35;;;;;;;-5.15;100.00;102678.59;1747253;82;21555;-84
2021/11/16 21:34:25;;;;;;;48.17;24.63;;;;;;;-5.21;100.00;102679.30;1747449;80;21488;-83
2021/11/16 21:36:54;;;;;;;56.50;26.05;;;;;;;-5.22;100.00;102675.04;1743017;82;21104;-83
2021/11/16 21:39:21;;;;;;;52.00;25.90;;;;;;;-5.19;100.00;102677.66;1747235;80;21100;-83
2021/11/16 21:41:48;;;;;;;53.65;25.30;;;;;;;-5.17;100.00;102677.30;1748638;80;21842;-83
2021/11/16 21:44:16;;;;;;;50.33;25.43;;;;;;;-5.18;100.00;102672.16;1723166;81;21077;-85
2021/11/16 21:46:45;;;;;;;47.45;23.57;;;;;;;-5.20;100.00;102667.05;1723178;81;21106;-84
2021/11/16 21:49:16;;;;;;;47.62;25.02;;;;;;;-5.20;100.00;102675.94;1753121;81;21064;-84
2021/11/16 21:51:45;;;;;;;49.58;23.80;;;;;;;-5.24;100.00;102673.74;1719927;81;21092;-85
2021/11/16 21:54:12;;;;;;;54.45;26.87;;;;;;;-5.31;100.00;102665.53;1752641;81;21130;-84
2021/11/16 21:56:40;;;;;;;52.53;25.05;;;;;;;-5.37;100.00;102663.24;1752819;81;21080;-85
2021/11/16 21:59:10;;;;;;;45.83;23.10;;;;;;;-5.43;100.00;102672.84;1752745;81;21673;-84
2021/11/16 22:01:39;;;;;;;68.87;30.23;;;;;;;-5.49;100.00;102656.19;1752880;80;21084;-84
2021/11/16 22:04:06;;;;;;;55.92;26.62;;;;;;;-5.53;100.00;102661.60;1752660;81;21009;-85
2021/11/16 22:06:34;;;;;;;51.45;24.65;;;;;;;-5.59;100.00;102649.61;1752856;80;21160;-84
2021/11/16 22:09:10;;;;;;;56.37;24.25;;;;;;;-5.60;100.00;102652.12;1752947;80;21061;-84
2021/11/16 22:14:06;;;;;;;48.20;23.10;;;;;;;-5.65;100.00;102649.47;1753094;80;21090;-84
2021/11/16 22:16:48;;;;;;;53.35;23.12;;;;;;;-5.71;100.00;102637.47;1752714;81;21326;-85
2021/11/16 22:19:05;;;;;;;38.92;18.85;;;;;;;-5.72;100.00;102635.75;1748209;81;21304;-83
2021/11/16 22:21:32;;;;;;;37.78;18.35;;;;;;;-5.73;100.00;102640.80;1752826;80;21042;-85
2021/11/16 22:24:00;;;;;;;43.20;18.35;;;;;;;-5.73;100.00;102639.10;1722992;81;21041;-85
2021/11/16 22:26:27;;;;;;;44.20;18.15;;;;;;;-5.72;100.00;102638.29;1752660;81;21051;-85
2021/11/16 22:29:07;;;;;;;38.58;19.25;;;;;;;-5.70;100.00;102639.20;1752761;81;21016;-84
2021/11/16 22:31:29;;;;;;;42.70;19.40;;;;;;;-5.67;100.00;102638.83;1748697;80;21099;-84
2021/11/16 22:33:54;;;;;;;38.23;19.48;;;;;;;-5.65;100.00;102630.85;1748139;80;21055;-83
2021/11/16 22:36:22;;;;;;;44.83;22.50;;;;;;;-5.61;100.00;102629.66;1748658;81;21013;-83
2021/11/16 22:38:52;;;;;;;50.38;22.20;;;;;;;-5.51;100.00;102632.04;1752647;80;21553;-85
2021/11/16 22:41:24;;;;;;;46.08;20.88;;;;;;;-5.39;100.00;102627.66;1753259;81;21076;-86
2021/11/16 22:43:50;;;;;;;41.18;21.65;;;;;;;-5.27;100.00;102625.82;1739667;82;21359;-84
2021/11/16 22:46:18;;;;;;;44.90;22.00;;;;;;;-5.19;100.00;102615.81;1742799;82;21579;-85
2021/11/16 22:48:45;;;;;;;42.20;19.82;;;;;;;-5.15;100.00;102621.43;1742955;80;21121;-83
2021/11/16 22:51:12;;;;;;;39.15;21.20;;;;;;;-5.16;100.00;102620.55;1742550;82;21105;-85
2021/11/16 22:53:40;;;;;;;47.73;21.93;;;;;;;-5.15;100.00;102612.11;1723709;82;21548;-85
2021/11/16 22:56:07;;;;;;;49.77;23.60;;;;;;;-5.18;100.00;102617.14;1723760;82;21855;-86
2021/11/16 22:58:35;;;;;;;48.85;22.50;;;;;;;-5.22;100.00;102621.69;1723664;82;21837;-85
